Time;durP1;ratioP1;P1;durP2;ratioP2;P2;SDS_P1;SDS_P2;PMS_P1;PMS_P2;Temp;Humidity;BMP_temperature;BMP_pressure;BME280_temperature;BME280_humidity;BME280_pressure;Samples;Min_cycle;Max_cycle;Signal;HPM_P1;HPM_P2
2022/12/30 00:02:01;;;;;;;3.67;1.87;;;6.50;99.90;6.00;99349;;;;561991;252;24106;-74
2022/12/30 00:04:29;;;;;;;3.77;2.10;;;6.50;99.90;5.90;99358;;;;572156;250;24074;-73
2022/12/30 00:06:57;;;;;;;3.40;1.97;;;6.40;99.90;5.90;99350;;;;586250;241;25413;-73
2022/12/30 00:09:26;;;;;;;3.40;1.63;;;6.30;99.90;5.90;99355;;;;595246;237;24087;-73
2022/12/30 00:11:58;;;;;;;1.50;1.40;;;6.30;99.90;5.80;99364;;;;595309;241;24052;-76
2022/12/30 00:33:56;;;;;;;1.43;1.00;;;6.20;99.90;5.80;99395;;;;581111;242;24065;-78
2022/12/30 00:36:26;;;;;;;2.23;1.07;;;6.30;99.90;5.90;99406;;;;569854;246;24138;-74
2022/12/30 00:38:52;;;;;;;1.77;1.47;;;6.30;99.90;5.90;99397;;;;561628;251;24067;-74
2022/12/30 00:44:06;;;;;;;3.33;2.17;;;6.40;99.90;6.00;99403;;;;590664;241;35129;-73
2022/12/30 00:46:33;;;;;;;1.60;1.40;;;6.40;99.90;6.00;99383;;;;582433;245;24104;-77
2022/12/30 00:57:20;;;;;;;4.00;1.13;;;6.50;99.90;6.00;99374;;;;583577;242;25132;-73
2022/12/30 00:59:48;;;;;;;1.80;1.57;;;6.50;99.90;6.00;99382;;;;582615;246;25126;-75
2022/12/30 01:02:19;;;;;;;2.00;1.83;;;6.50;99.90;6.00;99372;;;;584850;243;35030;-75
2022/12/30 01:04:43;;;;;;;2.62;2.20;;;6.50;99.90;6.00;99378;;;;583174;242;35066;-76
2022/12/30 01:07:11;;;;;;;1.50;1.40;;;6.50;99.90;6.00;99385;;;;589798;243;24103;-78
2022/12/30 01:09:39;;;;;;;2.00;1.40;;;6.40;99.90;5.90;99375;;;;591259;242;24133;-75
2022/12/30 01:12:10;;;;;;;1.20;1.10;;;6.40;99.90;5.90;99383;;;;589801;243;24062;-75
2022/12/30 01:14:40;;;;;;;3.03;1.30;;;6.40;99.90;5.90;99380;;;;583536;243;24057;-74
2022/12/30 01:17:08;;;;;;;2.70;1.10;;;6.40;99.90;6.00;99378;;;;579677;242;24049;-72
2022/12/30 01:19:36;;;;;;;4.27;1.47;;;6.40;99.90;6.00;99382;;;;583973;243;24070;-73
2022/12/30 01:22:04;;;;;;;1.80;1.23;;;6.40;99.90;6.00;99388;;;;592950;242;24050;-72
2022/12/30 01:24:35;;;;;;;5.20;1.30;;;6.40;99.90;6.00;99385;;;;592366;241;24063;-73
2022/12/30 01:27:00;;;;;;;1.70;1.30;;;6.40;99.90;6.00;99401;;;;581532;242;24064;-74
2022/12/30 01:29:28;;;;;;;1.90;1.20;;;6.50;99.90;6.00;99390;;;;590497;242;24049;-75
2022/12/30 01:31:56;;;;;;;1.87;0.90;;;6.40;99.90;6.00;99402;;;;584622;242;24068;-74
2022/12/30 01:34:24;;;;;;;1.07;0.97;;;6.50;99.90;6.10;99402;;;;581294;241;24083;-74
2022/12/30 01:36:52;;;;;;;3.30;1.27;;;6.50;99.90;6.20;99405;;;;582023;242;24115;-73
2022/12/30 01:39:20;;;;;;;3.27;1.30;;;6.60;99.90;6.30;99402;;;;592296;241;24039;-74
2022/12/30 01:41:49;;;;;;;2.37;1.30;;;6.80;99.90;6.40;99404;;;;583197;242;24063;-76
2022/12/30 01:44:53;;;;;;;1.77;1.20;;;6.80;99.90;6.50;99399;;;;582376;242;24057;-73
2022/12/30 01:47:35;;;;;;;3.07;0.90;;;6.90;99.90;6.50;99394;;;;582508;242;24070;-74
2022/12/30 01:50:12;;;;;;;2.03;0.97;;;7.00;99.90;6.60;99402;;;;588637;242;24063;-74
2022/12/30 01:52:52;;;;;;;3.10;1.23;;;7.00;99.90;6.50;99394;;;;582859;242;24049;-76
2022/12/30 01:55:26;;;;;;;1.50;1.13;;;7.00;99.90;6.50;99389;;;;579282;243;24061;-74
2022/12/30 01:57:54;;;;;;;1.37;1.07;;;6.90;99.90;6.40;99388;;;;593271;241;24050;-73
2022/12/30 02:00:23;;;;;;;2.97;1.20;;;6.90;99.90;6.40;99386;;;;577997;244;24107;-79
2022/12/30 02:02:50;;;;;;;3.30;1.07;;;6.90;99.90;6.30;99382;;;;583462;242;24102;-79
2022/12/30 02:05:18;;;;;;;3.27;1.37;;;6.80;99.90;6.20;99381;;;;586715;240;24074;-75
2022/12/30 02:07:46;;;;;;;1.37;1.00;;;6.70;99.90;6.10;99395;;;;562904;251;24148;-73
2022/12/30 02:10:14;;;;;;;1.33;1.23;;;6.60;99.90;6.00;99394;;;;591951;241;24122;-74
2022/12/30 02:12:43;;;;;;;6.07;1.23;;;6.50;99.90;6.00;99396;;;;591745;242;25108;-76
2022/12/30 02:15:14;;;;;;;1.10;1.00;;;6.50;99.90;6.00;99401;;;;588290;242;24108;-74
2022/12/30 02:18:00;;;;;;;2.70;1.30;;;6.50;99.90;6.00;99392;;;;590831;242;24084;-75
2022/12/30 02:21:11;;;;;;;2.80;1.53;;;6.50;99.90;6.00;99387;;;;580441;242;24075;-74
2022/12/30 02:24:00;;;;;;;1.10;0.80;;;6.50;99.90;6.10;99388;;;;587411;241;24062;-74
2022/12/30 02:27:07;;;;;;;3.17;1.20;;;6.60;99.90;6.20;99383;;;;584355;242;24080;-75
2022/12/30 02:30:15;;;;;;;4.70;1.40;;;6.60;99.90;6.20;99385;;;;563125;252;24190;-73
2022/12/30 02:33:01;;;;;;;2.63;1.20;;;6.70;99.90;6.20;99370;;;;571763;250;24108;-75
2022/12/30 02:35:35;;;;;;;2.23;1.53;;;6.70;99.90;6.20;99369;;;;581987;241;24072;-74
2022/12/30 02:38:43;;;;;;;2.47;1.10;;;6.70;99.90;6.20;99370;;;;580184;240;24063;-73
2022/12/30 02:44:56;;;;;;;1.40;1.20;;;6.70;99.90;6.30;99372;;;;569860;251;24120;-73
2022/12/30 02:46:38;;;;;;;3.30;1.50;;;6.70;99.90;6.30;99378;;;;565422;246;24083;-73
2022/12/30 02:49:10;;;;;;;1.57;1.47;;;6.80;99.90;6.30;99376;;;;584285;242;24076;-73
2022/12/30 02:54:21;;;;;;;3.63;1.57;;;6.70;99.90;6.30;99383;;;;571913;249;24128;-74
2022/12/30 02:56:52;;;;;;;1.87;1.60;;;6.70;99.90;6.20;99378;;;;568290;246;24082;-74
2022/12/30 03:05:30;;;;;;;2.47;1.63;;;6.60;99.90;6.10;99381;;;;579085;246;24096;-73
2022/12/30 03:08:09;;;;;;;2.17;1.37;;;6.60;99.90;6.10;99377;;;;595066;237;24059;-73
2022/12/30 03:11:16;;;;;;;1.23;1.10;;;6.60;99.90;6.20;99382;;;;587918;241;24069;-75
2022/12/30 03:13:59;;;;;;;2.60;1.27;;;6.60;99.90;6.40;99391;;;;581952;246;24097;-76
2022/12/30 03:16:36;;;;;;;2.23;1.20;;;6.80;99.90;6.40;99393;;;;574082;246;24160;-73
2022/12/30 03:19:07;;;;;;;3.40;1.57;;;6.80;99.90;6.50;99385;;;;581468;243;24062;-75
2022/12/30 03:21:36;;;;;;;1.77;1.40;;;6.80;99.90;6.40;99383;;;;570942;251;24130;-75
2022/12/30 03:27:23;;;;;;;4.13;1.57;;;6.80;99.90;6.30;99386;;;;575432;248;24076;-78
2022/12/30 03:29:23;;;;;;;2.23;1.30;;;6.80;99.90;6.40;99382;;;;573968;247;24078;-77
2022/12/30 03:31:50;;;;;;;1.57;1.47;;;6.80;99.90;6.40;99387;;;;558486;251;24046;-77
2022/12/30 03:34:19;;;;;;;4.57;1.27;;;6.90;99.90;6.50;99387;;;;568140;247;24001;-77
2022/12/30 03:36:47;;;;;;;1.77;1.43;;;6.90;99.90;6.50;99386;;;;593420;241;24135;-79
2022/12/30 03:39:18;;;;;;;1.93;1.60;;;6.90;99.90;6.60;99382;;;;569715;246;35219;-77
2022/12/30 03:41:46;;;;;;;3.75;1.60;;;7.00;99.90;6.60;99380;;;;576151;246;35306;-74
2022/12/30 03:44:14;;;;;;;1.83;1.40;;;7.00;99.90;6.60;99384;;;;574901;246;25131;-72
2022/12/30 03:46:45;;;;;;;1.23;1.13;;;7.00;99.90;6.60;99384;;;;585898;243;24064;-74
2022/12/30 03:49:13;;;;;;;4.43;1.30;;;7.00;99.90;6.60;99387;;;;580703;242;24083;-77
2022/12/30 03:51:39;;;;;;;3.60;0.80;;;7.00;99.90;6.60;99396;;;;596042;239;24079;-75
2022/12/30 03:54:06;;;;;;;1.13;0.87;;;7.10;99.90;6.70;99396;;;;572058;251;24123;-77
2022/12/30 03:56:34;;;;;;;0.70;0.70;;;7.00;99.90;6.70;99407;;;;595775;241;24148;-74
2022/12/30 03:59:02;;;;;;;1.27;1.10;;;7.10;99.90;6.70;99404;;;;596011;241;24054;-74
2022/12/30 04:01:33;;;;;;;2.10;0.77;;;7.10;99.90;6.80;99411;;;;595204;239;24077;-75
2022/12/30 04:04:02;;;;;;;2.17;1.37;;;7.20;99.90;6.80;99408;;;;582468;245;24086;-75
2022/12/30 04:06:26;;;;;;;1.30;0.77;;;7.20;99.90;6.80;99405;;;;573223;246;24120;-73
2022/12/30 04:08:54;;;;;;;1.47;1.40;;;7.20;99.90;6.80;99410;;;;588757;240;24057;-75
2022/12/30 04:11:22;;;;;;;3.13;1.10;;;7.20;99.90;6.80;99405;;;;588066;242;24037;-74
2022/12/30 04:13:51;;;;;;;1.70;1.20;;;7.10;99.90;6.80;99413;;;;588765;242;24065;-73
2022/12/30 04:16:18;;;;;;;1.07;0.90;;;7.20;99.90;6.80;99410;;;;588101;242;24065;-72
2022/12/30 04:18:47;;;;;;;4.00;1.10;;;7.10;99.90;6.70;99416;;;;589747;242;24067;-74
2022/12/30 04:21:15;;;;;;;0.77;0.77;;;7.10;99.90;6.70;99419;;;;588660;242;24066;-74
2022/12/30 04:23:44;;;;;;;2.77;1.20;;;7.10;99.90;6.70;99414;;;;588542;242;24064;-73
2022/12/30 04:26:11;;;;;;;2.03;1.00;;;7.10;99.90;6.70;99411;;;;588611;242;24083;-74
2022/12/30 04:28:39;;;;;;;1.00;1.00;;;7.10;99.90;6.70;99414;;;;588355;242;24061;-74
2022/12/30 04:31:07;;;;;;;1.63;0.97;;;7.10;99.90;6.70;99407;;;;591303;242;24099;-73
2022/12/30 04:33:36;;;;;;;1.23;1.00;;;7.10;99.90;6.70;99415;;;;588431;242;24103;-74
2022/12/30 04:36:07;;;;;;;1.37;0.77;;;7.10;99.90;6.70;99425;;;;589072;242;24056;-72
2022/12/30 04:38:36;;;;;;;1.20;1.10;;;7.10;99.90;6.70;99424;;;;592369;242;24065;-75
2022/12/30 04:41:00;;;;;;;1.07;0.97;;;7.10;99.90;6.70;99437;;;;582976;243;24133;-73
2022/12/30 04:43:28;;;;;;;1.37;1.27;;;7.10;99.90;6.70;99432;;;;593112;242;24087;-75
2022/12/30 04:45:56;;;;;;;1.17;1.00;;;7.10;99.90;6.60;99428;;;;588348;242;24071;-75
2022/12/30 04:48:25;;;;;;;0.80;0.73;;;7.10;99.90;6.60;99431;;;;588294;242;25222;-77
2022/12/30 04:50:53;;;;;;;2.53;0.87;;;7.10;99.90;6.70;99440;;;;582513;246;24076;-74
2022/12/30 04:53:21;;;;;;;0.93;0.90;;;7.10;99.90;6.70;99435;;;;582743;246;24101;-74
2022/12/30 04:55:55;;;;;;;1.00;1.00;;;7.10;99.90;6.60;99451;;;;572336;251;24074;-74
2022/12/30 04:58:23;;;;;;;1.00;0.87;;;7.10;99.90;6.60;99455;;;;592799;242;24088;-74
2022/12/30 05:00:51;;;;;;;2.93;1.30;;;7.00;99.90;6.60;99449;;;;591771;242;24057;-78
2022/12/30 05:03:19;;;;;;;0.97;0.97;;;7.10;99.90;6.60;99455;;;;591101;241;24056;-74
2022/12/30 05:05:47;;;;;;;4.53;1.00;;;7.00;99.90;6.60;99453;;;;593201;242;24100;-76
2022/12/30 05:08:16;;;;;;;0.80;0.80;;;7.00;99.90;6.60;99445;;;;586998;241;24065;-74
2022/12/30 05:10:44;;;;;;;0.80;0.80;;;7.00;99.90;6.60;99453;;;;593834;240;24027;-75
2022/12/30 05:13:12;;;;;;;1.73;1.27;;;7.00;99.90;6.60;99460;;;;588468;242;24052;-74
2022/12/30 05:15:40;;;;;;;2.37;0.83;;;7.00;99.90;6.70;99468;;;;588826;242;24057;-74
2022/12/30 05:18:08;;;;;;;1.87;1.07;;;7.10;99.90;6.70;99464;;;;590162;242;24060;-76
2022/12/30 05:20:36;;;;;;;0.80;0.80;;;7.10;99.90;6.70;99464;;;;584060;243;24067;-75
2022/12/30 05:26:13;;;;;;;3.07;0.97;;;7.10;99.90;6.70;99465;;;;592607;241;24047;-74
2022/12/30 05:28:18;;;;;;;0.70;0.70;;;7.10;99.90;6.70;99472;;;;590189;243;24054;-76
2022/12/30 05:30:50;;;;;;;0.97;0.73;;;7.10;99.90;6.60;99469;;;;593421;242;24094;-73
2022/12/30 05:33:15;;;;;;;2.80;0.87;;;7.10;99.90;6.60;99473;;;;582087;242;24080;-77
2022/12/30 05:35:43;;;;;;;0.97;0.90;;;7.10;99.90;6.60;99478;;;;588771;242;24029;-76
2022/12/30 05:38:12;;;;;;;0.60;0.60;;;7.00;99.90;6.60;99482;;;;564032;250;24125;-78
2022/12/30 05:40:40;;;;;;;1.80;1.03;;;7.00;99.90;6.50;99476;;;;586591;241;24058;-76
2022/12/30 05:43:08;;;;;;;2.87;0.80;;;7.00;99.90;6.50;99490;;;;571168;252;24155;-78
2022/12/30 05:45:36;;;;;;;0.50;0.50;;;7.00;99.90;6.50;99493;;;;582353;246;25118;-76
2022/12/30 05:48:04;;;;;;;0.50;0.50;;;6.90;99.90;6.40;99489;;;;588402;242;24124;-77
2022/12/30 05:50:32;;;;;;;0.57;0.57;;;6.80;99.90;6.40;99499;;;;587312;242;24074;-77
2022/12/30 05:53:01;;;;;;;0.60;0.60;;;6.80;99.90;6.30;99499;;;;581949;242;24144;-76
2022/12/30 05:55:29;;;;;;;1.07;0.67;;;6.80;99.90;6.30;99489;;;;587783;242;24048;-79
2022/12/30 05:57:57;;;;;;;1.13;0.70;;;6.70;99.90;6.20;99500;;;;589587;243;24063;-79
2022/12/30 06:00:25;;;;;;;0.70;0.70;;;6.70;99.90;6.20;99505;;;;592922;242;24087;-76
2022/12/30 06:02:52;;;;;;;2.43;0.73;;;6.70;99.90;6.10;99506;;;;589457;243;24063;-75
2022/12/30 06:05:21;;;;;;;1.13;0.73;;;6.60;99.90;6.10;99515;;;;593021;242;24059;-76
2022/12/30 06:07:49;;;;;;;1.57;0.70;;;6.60;99.90;6.10;99519;;;;588145;241;24087;-78
2022/12/30 06:10:21;;;;;;;0.70;0.70;;;6.50;99.90;6.10;99524;;;;588745;242;24041;-79
2022/12/30 06:12:46;;;;;;;0.63;0.60;;;6.50;99.90;6.10;99525;;;;589447;240;24065;-76
2022/12/30 06:15:14;;;;;;;1.57;1.10;;;6.50;99.90;6.10;99524;;;;591610;241;24049;-77
2022/12/30 06:17:42;;;;;;;1.63;1.00;;;6.50;99.90;6.10;99532;;;;593755;241;24053;-77
2022/12/30 06:20:10;;;;;;;2.43;1.17;;;6.50;99.90;6.10;99537;;;;572258;251;24114;-77
2022/12/30 06:22:39;;;;;;;2.87;1.13;;;6.50;99.90;6.10;99541;;;;563493;251;24163;-74
2022/12/30 06:25:07;;;;;;;2.53;1.12;;;6.50;99.90;6.10;99542;;;;567338;248;35252;-72
2022/12/30 06:27:35;;;;;;;1.43;0.90;;;6.60;99.90;6.10;99541;;;;580312;242;24083;-73
2022/12/30 06:30:03;;;;;;;3.63;1.00;;;6.60;99.90;6.20;99556;;;;569419;249;24105;-73
2022/12/30 06:32:31;;;;;;;3.33;1.03;;;6.60;99.90;6.20;99545;;;;569937;248;24155;-73
2022/12/30 06:34:59;;;;;;;1.27;0.90;;;6.60;99.90;6.20;99570;;;;577368;247;24086;-76
2022/12/30 06:37:27;;;;;;;1.27;0.90;;;6.70;99.90;6.20;99569;;;;577893;248;24091;-73
2022/12/30 06:39:55;;;;;;;2.83;1.17;;;6.60;99.90;6.20;99575;;;;594980;241;24073;-73
2022/12/30 06:42:23;;;;;;;3.53;0.90;;;6.60;99.90;6.20;99577;;;;586151;241;24131;-73
2022/12/30 06:44:52;;;;;;;2.97;1.10;;;6.70;99.90;6.30;99579;;;;595323;241;24096;-74
2022/12/30 06:47:19;;;;;;;1.03;1.03;;;6.70;99.90;6.30;99583;;;;570686;249;24122;-79
2022/12/30 06:49:48;;;;;;;2.47;1.20;;;6.70;99.90;6.30;99586;;;;586062;241;24064;-73
2022/12/30 06:52:16;;;;;;;7.00;1.43;;;6.80;99.90;6.30;99581;;;;595788;241;24070;-73
2022/12/30 06:54:44;;;;;;;3.50;1.20;;;6.80;99.90;6.30;99585;;;;572036;251;24127;-75
2022/12/30 06:57:12;;;;;;;0.90;0.90;;;6.70;99.90;6.20;99587;;;;595593;238;24044;-77
2022/12/30 06:59:40;;;;;;;2.50;1.30;;;6.70;99.90;6.10;99587;;;;590876;241;24065;-76
2022/12/30 07:02:13;;;;;;;1.77;1.27;;;6.60;99.90;6.10;99590;;;;586520;241;24060;-76
2022/12/30 07:04:39;;;;;;;3.30;1.23;;;6.60;99.90;6.10;99592;;;;586397;241;24057;-73
2022/12/30 07:07:07;;;;;;;1.50;1.17;;;6.50;99.90;6.10;99588;;;;589455;241;24040;-79
2022/12/30 07:09:35;;;;;;;6.73;1.70;;;6.50;99.90;6.00;99598;;;;595793;239;24071;-78
2022/12/30 07:12:03;;;;;;;1.07;1.03;;;6.40;99.90;6.00;99591;;;;589066;241;24055;-78
2022/12/30 07:14:32;;;;;;;0.60;0.60;;;6.40;99.90;5.90;99592;;;;592696;240;24060;-77
2022/12/30 07:17:00;;;;;;;3.77;1.57;;;6.40;99.90;5.90;99602;;;;596553;241;24130;-79
2022/12/30 07:19:28;;;;;;;2.37;1.00;;;6.30;99.90;5.90;99622;;;;595659;241;24071;-78
2022/12/30 07:21:56;;;;;;;1.80;1.10;;;6.30;99.90;5.80;99629;;;;588278;241;24053;-74
2022/12/30 07:24:24;;;;;;;4.43;1.60;;;6.30;99.90;5.80;99618;;;;595352;239;24091;-74
2022/12/30 07:26:53;;;;;;;1.93;1.30;;;6.30;99.90;5.90;99635;;;;596602;240;24070;-73
2022/12/30 07:29:21;;;;;;;2.03;1.33;;;6.30;99.90;5.90;99627;;;;596274;241;24052;-74
2022/12/30 07:31:49;;;;;;;1.97;1.20;;;6.40;99.90;6.00;99636;;;;596816;241;24061;-74
2022/12/30 07:34:16;;;;;;;3.37;1.60;;;6.40;99.90;6.00;99633;;;;595011;240;24178;-76
2022/12/30 07:36:44;;;;;;;4.47;1.10;;;6.50;99.90;6.00;99644;;;;595455;241;24048;-73
2022/12/30 07:39:12;;;;;;;2.70;2.00;;;6.50;99.90;6.10;99638;;;;595585;240;24055;-74
2022/12/30 07:41:40;;;;;;;5.37;1.83;;;6.60;99.90;6.20;99641;;;;595741;241;24154;-74
2022/12/30 07:44:08;;;;;;;1.70;1.30;;;6.60;99.90;6.20;99647;;;;595666;241;24112;-72
2022/12/30 07:46:37;;;;;;;1.47;1.10;;;6.60;99.90;6.20;99644;;;;595017;241;24053;-74
2022/12/30 07:49:05;;;;;;;7.47;1.20;;;6.60;99.90;6.10;99647;;;;595388;241;24055;-73
2022/12/30 07:51:33;;;;;;;3.70;1.40;;;6.60;99.90;6.10;99645;;;;595595;241;24059;-74
2022/12/30 07:54:01;;;;;;;5.00;1.30;;;6.50;99.90;6.10;99638;;;;595522;241;24176;-74
2022/12/30 07:56:29;;;;;;;5.10;1.80;;;6.50;99.90;6.10;99650;;;;595346;241;24069;-76
2022/12/30 07:58:58;;;;;;;2.23;1.67;;;6.50;99.90;6.00;99655;;;;595516;241;24135;-75
2022/12/30 08:01:25;;;;;;;3.87;1.40;;;6.50;99.90;6.00;99663;;;;595636;240;24065;-77
2022/12/30 08:03:54;;;;;;;9.57;1.73;;;6.40;99.90;6.00;99668;;;;595515;241;24060;-77
2022/12/30 08:06:21;;;;;;;1.67;1.43;;;6.40;99.90;6.00;99667;;;;594588;241;24086;-78
2022/12/30 08:08:50;;;;;;;4.13;1.50;;;6.40;99.90;5.90;99678;;;;595354;237;24078;-79
2022/12/30 08:11:22;;;;;;;6.83;1.83;;;6.40;99.90;5.90;99676;;;;578717;246;24083;-78
2022/12/30 08:13:47;;;;;;;3.73;1.73;;;6.30;99.90;5.90;99675;;;;585089;241;25122;-73
2022/12/30 08:16:15;;;;;;;1.53;1.40;;;6.30;99.90;5.90;99682;;;;571047;252;24182;-72
2022/12/30 08:18:46;;;;;;;4.57;1.10;;;6.30;99.90;5.90;99681;;;;583860;241;24155;-74
2022/12/30 08:21:12;;;;;;;1.30;1.20;;;6.40;99.90;5.90;99679;;;;585675;238;24161;-72
2022/12/30 08:23:44;;;;;;;2.20;1.13;;;6.30;99.90;5.90;99685;;;;587392;242;24085;-73
2022/12/30 08:26:08;;;;;;;1.97;1.40;;;6.40;99.90;5.90;99684;;;;578222;246;24122;-76
2022/12/30 08:28:36;;;;;;;4.80;2.00;;;6.30;99.90;5.90;99694;;;;581269;247;24123;-73
2022/12/30 08:31:10;;;;;;;3.70;1.67;;;6.40;99.90;5.90;99696;;;;573219;247;24112;-75
2022/12/30 08:33:38;;;;;;;2.77;1.60;;;6.40;99.90;5.90;99700;;;;572934;247;24115;-73
2022/12/30 08:36:06;;;;;;;2.77;1.30;;;6.40;99.90;6.00;99712;;;;572696;245;24239;-77
2022/12/30 08:38:34;;;;;;;1.53;1.37;;;6.40;99.90;6.00;99720;;;;581280;247;24111;-75
2022/12/30 08:41:08;;;;;;;8.10;2.00;;;6.50;99.90;6.10;99722;;;;577264;247;24098;-77
2022/12/30 08:43:36;;;;;;;3.80;1.43;;;6.50;99.90;6.20;99724;;;;570575;247;24102;-76
2022/12/30 08:46:07;;;;;;;6.83;1.57;;;6.60;99.90;6.20;99723;;;;570919;247;24076;-77
2022/12/30 08:48:32;;;;;;;3.00;1.67;;;6.70;99.90;6.20;99728;;;;584211;245;24120;-77
2022/12/30 08:51:03;;;;;;;2.40;1.30;;;6.70;99.90;6.20;99729;;;;575984;245;24174;-75
2022/12/30 08:53:28;;;;;;;4.20;1.63;;;6.70;99.90;6.30;99716;;;;584534;246;24096;-76
2022/12/30 08:56:16;;;;;;;2.80;1.67;;;6.70;99.90;6.20;99727;;;;575850;245;24063;-75
2022/12/30 08:58:44;;;;;;;2.70;1.47;;;6.70;99.90;6.30;99729;;;;580271;246;24094;-73
2022/12/30 09:01:12;;;;;;;4.80;1.90;;;6.70;99.90;6.30;99725;;;;581678;246;24107;-73
2022/12/30 09:03:44;;;;;;;2.80;1.70;;;6.70;99.90;6.30;99733;;;;552526;255;24224;-76
2022/12/30 09:06:08;;;;;;;4.47;1.83;;;6.70;99.90;6.30;99737;;;;572520;246;24101;-76
2022/12/30 09:08:36;;;;;;;3.67;1.80;;;6.70;99.90;6.30;99749;;;;579479;244;24107;-75
2022/12/30 09:11:07;;;;;;;3.27;2.37;;;6.70;99.90;6.30;99747;;;;581724;247;25119;-74
2022/12/30 09:13:38;;;;;;;5.50;1.83;;;6.70;99.90;6.30;99742;;;;573919;247;24087;-72
2022/12/30 09:16:03;;;;;;;5.77;2.37;;;6.80;99.90;6.40;99741;;;;581470;246;24124;-74
2022/12/30 09:18:31;;;;;;;3.77;2.00;;;6.80;99.90;6.40;99752;;;;579382;247;24144;-73
2022/12/30 09:20:59;;;;;;;4.20;1.80;;;6.80;99.90;6.40;99749;;;;570658;247;24093;-72
2022/12/30 09:23:28;;;;;;;7.43;2.63;;;6.80;99.90;6.40;99742;;;;562466;251;24111;-73
2022/12/30 09:26:00;;;;;;;4.00;2.47;;;6.80;99.90;6.50;99755;;;;582181;242;24073;-73
2022/12/30 09:28:24;;;;;;;8.50;2.37;;;6.90;99.90;6.50;99761;;;;572997;246;24130;-72
2022/12/30 09:30:52;;;;;;;6.17;2.10;;;6.90;99.90;6.40;99774;;;;570868;247;24083;-73
2022/12/30 09:33:20;;;;;;;10.23;3.63;;;6.90;99.90;6.40;99768;;;;570979;248;24084;-73
2022/12/30 09:35:48;;;;;;;3.20;2.00;;;6.90;99.90;6.40;99774;;;;573504;248;24077;-73
2022/12/30 09:38:16;;;;;;;3.80;2.17;;;6.90;99.90;6.40;99774;;;;570171;248;24092;-72
2022/12/30 09:41:02;;;;;;;3.97;2.33;;;6.90;99.90;6.50;99781;;;;578833;247;24166;-72
2022/12/30 09:44:03;;;;;;;3.87;2.70;;;6.90;99.90;6.50;99781;;;;570151;247;24091;-71
2022/12/30 09:46:37;;;;;;;5.13;1.93;;;6.90;99.90;6.50;99780;;;;561919;248;24122;-72
2022/12/30 09:49:05;;;;;;;7.65;3.53;;;6.90;99.90;6.50;99785;;;;565385;248;35240;-73
2022/12/30 09:51:35;;;;;;;4.43;2.13;;;6.90;99.90;6.50;99788;;;;576605;248;24109;-73
2022/12/30 09:54:03;;;;;;;7.33;2.67;;;6.90;99.90;6.50;99791;;;;574217;246;24155;-73
2022/12/30 09:56:32;;;;;;;4.93;2.37;;;6.90;99.90;6.50;99795;;;;561175;251;25191;-73
2022/12/30 09:59:11;;;;;;;4.87;2.43;;;6.90;99.90;6.50;99792;;;;581593;247;24090;-73
2022/12/30 10:01:45;;;;;;;8.17;2.37;;;6.90;99.90;6.50;99783;;;;572774;247;24090;-73
2022/12/30 10:04:16;;;;;;;2.47;1.70;;;6.90;99.90;6.50;99783;;;;573705;247;24097;-72
2022/12/30 10:07:07;;;;;;;3.60;1.77;;;6.90;99.90;6.50;99787;;;;576126;246;24090;-73
2022/12/30 10:09:49;;;;;;;6.73;3.43;;;6.90;99.90;6.50;99792;;;;572288;247;24150;-72
2022/12/30 10:12:43;;;;;;;6.17;2.07;;;6.90;99.90;6.50;99790;;;;582161;242;24093;-73
2022/12/30 10:15:17;;;;;;;8.03;2.40;;;6.90;99.90;6.50;99799;;;;566474;249;24107;-75
2022/12/30 10:18:18;;;;;;;2.70;2.00;;;6.90;99.90;6.60;99791;;;;558604;254;24136;-77
2022/12/30 10:21:00;;;;;;;3.73;1.67;;;7.00;99.90;6.70;99793;;;;564183;247;24118;-79
2022/12/30 10:24:03;;;;;;;3.30;1.97;;;7.10;99.90;6.90;99793;;;;568610;247;24105;-77
2022/12/30 10:26:47;;;;;;;4.37;1.80;;;7.30;99.90;7.00;99792;;;;563826;252;24074;-77
2022/12/30 10:29:20;;;;;;;7.17;2.77;;;7.40;99.90;7.10;99791;;;;573317;246;24091;-77
2022/12/30 10:31:48;;;;;;;3.40;1.67;;;7.50;99.90;7.00;99789;;;;586786;241;24060;-76
2022/12/30 10:34:22;;;;;;;5.27;2.30;;;7.50;99.90;7.00;99785;;;;586721;241;24050;-76
2022/12/30 10:37:05;;;;;;;3.67;2.30;;;7.50;99.90;6.90;99783;;;;561065;251;24150;-75
2022/12/30 10:39:39;;;;;;;6.50;2.03;;;7.40;99.90;6.90;99798;;;;559227;253;24104;-76
2022/12/30 10:42:25;;;;;;;3.47;1.30;;;7.30;99.90;6.80;99809;;;;573998;244;24132;-76
2022/12/30 10:45:39;;;;;;;10.43;2.27;;;7.30;99.90;6.90;99818;;;;566598;248;24111;-74
2022/12/30 10:48:28;;;;;;;3.73;1.70;;;7.30;99.90;6.90;99795;;;;560997;252;24126;-74
2022/12/30 10:51:00;;;;;;;6.17;1.77;;;7.30;99.90;6.90;99807;;;;569364;252;24107;-74
2022/12/30 10:53:24;;;;;;;7.83;2.13;;;7.30;99.90;6.90;99828;;;;574624;243;24150;-76
2022/12/30 10:56:03;;;;;;;6.80;2.00;;;7.30;99.90;7.00;99828;;;;583003;242;24103;-73
2022/12/30 10:58:44;;;;;;;5.27;1.80;;;7.40;99.90;7.10;99826;;;;572815;246;24108;-74
2022/12/30 11:01:19;;;;;;;3.70;1.57;;;7.40;99.90;7.10;99826;;;;581388;245;24084;-75
2022/12/30 11:03:51;;;;;;;7.20;2.10;;;7.50;99.90;7.10;99831;;;;577952;246;24105;-75
2022/12/30 11:06:28;;;;;;;2.23;1.43;;;7.50;99.90;7.10;99821;;;;562242;251;24115;-75
2022/12/30 11:09:14;;;;;;;5.67;1.83;;;7.50;99.90;7.10;99822;;;;587769;238;24095;-77
2022/12/30 11:14:45;;;;;;;6.47;2.37;;;7.60;99.90;7.20;99828;;;;595045;241;24046;-75
2022/12/30 11:17:16;;;;;;;4.33;1.60;;;7.70;99.90;7.20;99830;;;;586163;241;24045;-78
2022/12/30 11:19:44;;;;;;;8.53;2.47;;;7.70;99.90;7.30;99826;;;;586002;242;24113;-77
2022/12/30 11:22:12;;;;;;;3.87;1.70;;;7.70;99.90;7.20;99830;;;;572474;247;24101;-75
2022/12/30 11:24:41;;;;;;;7.00;1.80;;;7.60;99.90;7.10;99818;;;;581256;247;24095;-74
2022/12/30 11:27:08;;;;;;;5.47;2.30;;;7.60;99.90;7.00;99826;;;;564087;249;24103;-75
2022/12/30 11:29:36;;;;;;;6.13;1.60;;;7.50;99.90;6.90;99826;;;;584646;241;24199;-75
2022/12/30 11:32:10;;;;;;;3.50;1.67;;;7.40;99.90;6.80;99844;;;;571058;250;24172;-76
2022/12/30 11:34:38;;;;;;;2.40;1.63;;;7.30;99.90;6.80;99826;;;;582969;246;24106;-75
2022/12/30 11:37:34;;;;;;;4.43;1.90;;;7.20;99.90;6.70;99839;;;;571208;246;24129;-74
2022/12/30 11:40:26;;;;;;;7.73;1.60;;;7.20;99.90;6.70;99847;;;;582716;241;24039;-75
2022/12/30 11:43:09;;;;;;;5.70;2.23;;;7.10;99.90;6.70;99860;;;;589440;242;24066;-74
2022/12/30 11:45:37;;;;;;;6.63;1.50;;;7.10;99.90;6.70;99854;;;;588937;242;24057;-75
2022/12/30 11:48:05;;;;;;;7.03;2.10;;;7.10;99.90;6.60;99861;;;;578625;246;24092;-73
2022/12/30 11:50:37;;;;;;;7.97;2.20;;;7.10;99.90;6.60;99867;;;;589921;241;24061;-74
2022/12/30 11:53:02;;;;;;;6.70;2.73;;;7.00;99.90;6.60;99869;;;;581902;241;35214;-75
2022/12/30 11:55:33;;;;;;;6.53;2.70;;;7.00;99.90;6.50;99866;;;;590757;236;35149;-75
2022/12/30 11:57:58;;;;;;;4.30;2.10;;;6.90;99.90;6.50;99883;;;;562072;250;24134;-74
2022/12/30 12:00:37;;;;;;;7.40;2.30;;;6.90;99.90;6.50;99887;;;;569601;247;24098;-75
2022/12/30 12:03:08;;;;;;;3.87;2.20;;;6.90;99.90;6.50;99892;;;;604157;237;24054;-74
2022/12/30 12:05:39;;;;;;;9.70;2.40;;;6.90;99.90;6.40;99893;;;;592140;242;24130;-74
2022/12/30 12:08:18;;;;;;;4.50;1.73;;;6.90;99.90;6.40;99908;;;;581390;243;24057;-74
2022/12/30 12:10:46;;;;;;;6.50;2.10;;;6.90;99.90;6.50;99913;;;;572182;246;24109;-76
2022/12/30 12:13:35;;;;;;;4.77;1.83;;;6.90;99.90;6.50;99916;;;;572623;247;24118;-76
2022/12/30 12:16:03;;;;;;;8.03;2.40;;;6.90;99.90;6.50;99914;;;;592807;240;24107;-75
2022/12/30 12:18:36;;;;;;;4.20;2.20;;;7.00;99.90;6.60;99919;;;;595044;238;24018;-75
2022/12/30 12:21:14;;;;;;;5.13;2.10;;;6.90;99.90;6.50;99917;;;;594592;237;24030;-76
2022/12/30 12:24:04;;;;;;;4.67;1.97;;;6.90;99.90;6.50;99917;;;;594819;238;24021;-76
2022/12/30 12:26:56;;;;;;;5.20;2.00;;;6.90;99.90;6.40;99913;;;;594665;238;24037;-75
2022/12/30 12:29:27;;;;;;;6.57;1.67;;;6.90;99.90;6.40;99921;;;;595181;237;24077;-75
2022/12/30 12:32:04;;;;;;;1.27;1.20;;;6.90;99.90;6.40;99911;;;;600012;238;24076;-76
2022/12/30 12:34:41;;;;;;;2.73;1.13;;;6.80;99.90;6.40;99913;;;;598904;238;24025;-76
2022/12/30 12:37:36;;;;;;;8.37;2.13;;;6.80;99.90;6.40;99934;;;;591079;238;24037;-75
2022/12/30 12:40:52;;;;;;;11.23;2.23;;;6.80;99.90;6.30;99944;;;;593361;238;24028;-76
2022/12/30 12:43:37;;;;;;;2.13;1.60;;;6.70;99.90;6.20;99939;;;;594520;237;24092;-77
2022/12/30 12:46:29;;;;;;;8.23;1.97;;;6.70;99.90;6.20;99936;;;;594424;237;24027;-76
2022/12/30 12:49:11;;;;;;;8.43;2.00;;;6.60;99.90;6.10;99943;;;;585029;241;24059;-78